Staunton, Indiana
Current Conditions -  °F | °C
As of 7:07 PM on Thursday 27 Nov 2014 (Local Time) from KHUF Reporting Station
Overcast Overcast  
Wind Chill: 17°   Ceiling: 4400
Heat Index: 27°   Visibility: 10mi
Dew Point: 20°   Wind: 12mph
Humidity: 75%   Direction: 300°WNW
Pressure: 30.44"   Gusts: NA
Location:  39.49°N, 87.19°W
Report Text: KHUF 280007Z 30010KT 10SM SCT018 OVC044 M03/M07 A3044 RMK AO2 T10281067
Loading
Personal Weather Stations






























Interactive Weather Map New forecast layout! Learn more

10-Day Weather Forecast

Advertisements
Track Severe Weather on mobile